ARG6739 SAVE-SAZR
Flight info
| Callsign | ARG6739 |
|---|---|
| Flight time | N/A |
| Altitude | 34000 |
| Route | DCT ESQ UW44 BAR/N0462F350 UW26 NEU UZ114 OSEKO UZ127 OSA DCT |
| Aircraft | B38M/M-SDE1FGHILORVWXY/HB1 |
Departure
| Time | 2026-04-16 13:40 |
|---|---|
| Airport | Esquel Brigadier Antonio Parodi International Airport (SAVE) |
Arrival
| Time | N/A |
|---|---|
| Airport | Santa Rosa Airport (SAZR) |
| Time | Latitude | Longitude | Altitude | Speed | Heading |
|---|---|---|---|---|---|
| 2026-04-16 13:10 | -42.90632 | -71.14597 | 2609 ft | 0 kts | 236° |
| 2026-04-16 13:29 | -42.90636 | -71.14603 | 2614 ft | 2 kts | 236° |
| 2026-04-16 13:29 | -42.90637 | -71.14605 | 2614 ft | 1 kts | 235° |
| 2026-04-16 13:29 | -42.90637 | -71.14607 | 2614 ft | 0 kts | 235° |
| 2026-04-16 13:30 | -42.90641 | -71.14614 | 2615 ft | 1 kts | 234° |
| 2026-04-16 13:30 | -42.90642 | -71.14615 | 2615 ft | 0 kts | 234° |
| 2026-04-16 13:32 | -42.90642 | -71.14616 | 2615 ft | 0 kts | 234° |
| 2026-04-16 13:35 | -42.90648 | -71.14618 | 2616 ft | 1 kts | 170° |
| 2026-04-16 13:35 | -42.90684 | -71.14598 | 2616 ft | 9 kts | 158° |
| 2026-04-16 13:36 | -42.90749 | -71.14544 | 2616 ft | 14 kts | 109° |
| 2026-04-16 13:36 | -42.90738 | -71.14375 | 2612 ft | 22 kts | 83° |
| 2026-04-16 13:36 | -42.90668 | -71.14157 | 2607 ft | 28 kts | 57° |
| 2026-04-16 13:36 | -42.90558 | -71.13927 | 2602 ft | 30 kts | 57° |
| 2026-04-16 13:37 | -42.90445 | -71.13688 | 2596 ft | 31 kts | 55° |
| 2026-04-16 13:37 | -42.90326 | -71.13442 | 2591 ft | 31 kts | 57° |
| 2026-04-16 13:37 | -42.90208 | -71.13191 | 2586 ft | 32 kts | 57° |
| 2026-04-16 13:37 | -42.90098 | -71.12961 | 2581 ft | 28 kts | 57° |
| 2026-04-16 13:38 | -42.89991 | -71.12735 | 2576 ft | 29 kts | 56° |
| 2026-04-16 13:38 | -42.89882 | -71.12504 | 2572 ft | 29 kts | 57° |
| 2026-04-16 13:38 | -42.89811 | -71.12391 | 2570 ft | 8 kts | 26° |
| 2026-04-16 13:38 | -42.89806 | -71.12358 | 2570 ft | 6 kts | 185° |
| 2026-04-16 13:39 | -42.89824 | -71.12382 | 2571 ft | 0 kts | 234° |
| 2026-04-16 13:39 | -42.89829 | -71.12391 | 2567 ft | 14 kts | 234° |
| 2026-04-16 13:40 | -42.90026 | -71.12806 | 2574 ft | 89 kts | 237° |
| 2026-04-16 13:40 | -42.90478 | -71.13756 | 2594 ft | 149 kts | 237° |
| 2026-04-16 13:40 | -42.91108 | -71.15064 | 2897 ft | 173 kts | 237° |
| 2026-04-16 13:40 | -42.91773 | -71.16461 | 3585 ft | 181 kts | 237° |
| 2026-04-16 13:41 | -42.92587 | -71.17756 | 4257 ft | 189 kts | 218° |
| 2026-04-16 13:41 | -42.93861 | -71.18408 | 4637 ft | 209 kts | 184° |
| 2026-04-16 13:41 | -42.95313 | -71.17914 | 5022 ft | 231 kts | 147° |
| 2026-04-16 13:41 | -42.96404 | -71.16271 | 5528 ft | 244 kts | 116° |
| 2026-04-16 13:42 | -42.96878 | -71.14048 | 6075 ft | 252 kts | 90° |
| 2026-04-16 13:42 | -42.96602 | -71.11666 | 6446 ft | 265 kts | 64° |
| 2026-04-16 13:42 | -42.95583 | -71.09547 | 6919 ft | 272 kts | 36° |
| 2026-04-16 13:42 | -42.93979 | -71.08368 | 7702 ft | 262 kts | 7° |
| 2026-04-16 13:43 | -42.92214 | -71.08283 | 8405 ft | 256 kts | 343° |
| 2026-04-16 13:43 | -42.90545 | -71.08961 | 9180 ft | 252 kts | 333° |
| 2026-04-16 13:43 | -42.88978 | -71.09698 | 10458 ft | 237 kts | 342° |
| 2026-04-16 13:43 | -42.87255 | -71.09670 | 10815 ft | 270 kts | 8° |
| 2026-04-16 13:44 | -42.85425 | -71.08829 | 11245 ft | 286 kts | 8° |
| 2026-04-16 13:44 | -42.83445 | -71.08386 | 11707 ft | 291 kts | 354° |
| 2026-04-16 13:44 | -42.81397 | -71.08588 | 12050 ft | 303 kts | 347° |
| 2026-04-16 13:44 | -42.79264 | -71.08985 | 12443 ft | 319 kts | 348° |
| 2026-04-16 13:45 | -42.77011 | -71.09308 | 12794 ft | 335 kts | 351° |
| 2026-04-16 13:45 | -42.74635 | -71.09529 | 13138 ft | 351 kts | 352° |
| 2026-04-16 13:45 | -42.72183 | -71.09689 | 13734 ft | 357 kts | 353° |
| 2026-04-16 13:45 | -42.69706 | -71.09832 | 14449 ft | 360 kts | 353° |
| 2026-04-16 13:46 | -42.67196 | -71.09979 | 15155 ft | 363 kts | 353° |
| 2026-04-16 13:46 | -42.64679 | -71.10131 | 15899 ft | 365 kts | 354° |
| 2026-04-16 13:46 | -42.62146 | -71.10290 | 16555 ft | 368 kts | 354° |
| 2026-04-16 13:46 | -42.59596 | -71.10455 | 17193 ft | 372 kts | 354° |
| 2026-04-16 13:47 | -42.57014 | -71.10627 | 17830 ft | 375 kts | 354° |
| 2026-04-16 13:47 | -42.54412 | -71.10797 | 18467 ft | 378 kts | 354° |
| 2026-04-16 13:47 | -42.51791 | -71.10968 | 19068 ft | 382 kts | 354° |
| 2026-04-16 13:47 | -42.49111 | -71.11148 | 19654 ft | 386 kts | 354° |
| 2026-04-16 13:48 | -42.46444 | -71.11326 | 20279 ft | 388 kts | 354° |
| 2026-04-16 13:48 | -42.43746 | -71.11506 | 20790 ft | 393 kts | 354° |
| 2026-04-16 13:48 | -42.41021 | -71.11685 | 21400 ft | 394 kts | 354° |
| 2026-04-16 13:48 | -42.38286 | -71.11864 | 21950 ft | 397 kts | 354° |
| 2026-04-16 13:49 | -42.35533 | -71.12042 | 22516 ft | 399 kts | 354° |
| 2026-04-16 13:49 | -42.32754 | -71.12223 | 22985 ft | 403 kts | 354° |
| 2026-04-16 13:49 | -42.29932 | -71.12410 | 23475 ft | 407 kts | 353° |
| 2026-04-16 13:49 | -42.27117 | -71.12594 | 24104 ft | 406 kts | 353° |
| 2026-04-16 13:50 | -42.24300 | -71.12776 | 24617 ft | 409 kts | 353° |
| 2026-04-16 13:50 | -42.21465 | -71.12958 | 25147 ft | 410 kts | 353° |
| 2026-04-16 13:50 | -42.18622 | -71.13141 | 25659 ft | 412 kts | 353° |
| 2026-04-16 13:50 | -42.15765 | -71.13325 | 26145 ft | 414 kts | 353° |
| 2026-04-16 13:51 | -42.12896 | -71.13511 | 26620 ft | 416 kts | 353° |
| 2026-04-16 13:51 | -42.09993 | -71.13699 | 27080 ft | 418 kts | 353° |
| 2026-04-16 13:51 | -42.07098 | -71.13888 | 27619 ft | 418 kts | 353° |
| 2026-04-16 13:51 | -42.04204 | -71.14078 | 28083 ft | 419 kts | 352° |
| 2026-04-16 13:52 | -42.01296 | -71.14268 | 28498 ft | 422 kts | 352° |
| 2026-04-16 13:52 | -41.98367 | -71.14460 | 28889 ft | 424 kts | 352° |
| 2026-04-16 13:52 | -41.95426 | -71.14652 | 29322 ft | 426 kts | 352° |
| 2026-04-16 13:52 | -41.92483 | -71.14843 | 29835 ft | 425 kts | 352° |
| 2026-04-16 13:53 | -41.89522 | -71.15034 | 30289 ft | 426 kts | 352° |
| 2026-04-16 13:53 | -41.86568 | -71.15227 | 30680 ft | 428 kts | 352° |
| 2026-04-16 13:53 | -41.83627 | -71.15412 | 31302 ft | 424 kts | 352° |
| 2026-04-16 13:53 | -41.80731 | -71.15593 | 31959 ft | 419 kts | 352° |
| 2026-04-16 13:54 | -41.77865 | -71.15771 | 32716 ft | 411 kts | 351° |
| 2026-04-16 13:54 | -41.75051 | -71.15947 | 33449 ft | 404 kts | 352° |
| 2026-04-16 13:54 | -41.72264 | -71.16123 | 33768 ft | 404 kts | 351° |
| 2026-04-16 13:55 | -41.66608 | -71.16431 | 33811 ft | 406 kts | 352° |
| 2026-04-16 13:55 | -41.60990 | -71.16692 | 33817 ft | 407 kts | 353° |
| 2026-04-16 13:56 | -41.55345 | -71.16953 | 33823 ft | 407 kts | 352° |
| 2026-04-16 13:56 | -41.49676 | -71.17219 | 33822 ft | 406 kts | 353° |
| 2026-04-16 13:57 | -41.44022 | -71.17484 | 33837 ft | 410 kts | 352° |
| 2026-04-16 13:57 | -41.38376 | -71.17754 | 33836 ft | 408 kts | 353° |
| 2026-04-16 13:58 | -41.29855 | -71.18163 | 33849 ft | 410 kts | 353° |
| 2026-04-16 13:58 | -41.24189 | -71.18430 | 33861 ft | 410 kts | 353° |
| 2026-04-16 13:59 | -41.18484 | -71.18039 | 33872 ft | 420 kts | 5° |
| 2026-04-16 13:59 | -41.12967 | -71.15215 | 33874 ft | 437 kts | 23° |
| 2026-04-16 14:00 | -41.07999 | -71.10411 | 33868 ft | 451 kts | 35° |
| 2026-04-16 14:00 | -41.03609 | -71.04436 | 33862 ft | 457 kts | 41° |
| 2026-04-16 14:01 | -40.99415 | -70.98154 | 33856 ft | 459 kts | 41° |
| 2026-04-16 14:01 | -40.95212 | -70.91870 | 33844 ft | 456 kts | 41° |
| 2026-04-16 14:02 | -40.90973 | -70.85639 | 33841 ft | 458 kts | 41° |
| 2026-04-16 14:02 | -40.86705 | -70.79461 | 34045 ft | 461 kts | 40° |
| 2026-04-16 14:03 | -40.84527 | -70.76341 | 34211 ft | 467 kts | 40° |
| 2026-04-16 14:03 | -40.82351 | -70.73195 | 34587 ft | 467 kts | 40° |
| 2026-04-16 14:03 | -40.80145 | -70.70018 | 34806 ft | 469 kts | 40° |
| 2026-04-16 14:03 | -40.77944 | -70.66863 | 34850 ft | 467 kts | 40° |
| 2026-04-16 14:04 | -40.74332 | -70.61688 | 34855 ft | 460 kts | 40° |